sensor_id;sensor_type;location;lat;lon;timestamp;pressure;altitude;pressure_sealevel;temperature
69597;BMP180;56802;51.184;-115.558;2022-07-29T00:01:44;86510.60;;;
69597;BMP180;56802;51.184;-115.558;2022-07-29T00:04:13;86504.00;;;
69597;BMP180;56802;51.184;-115.558;2022-07-29T00:06:43;86505.00;;;
69597;BMP180;56802;51.184;-115.558;2022-07-29T00:09:13;86506.60;;;
69597;BMP180;56802;51.184;-115.558;2022-07-29T00:11:43;86501.20;;;
69597;BMP180;56802;51.184;-115.558;2022-07-29T00:14:12;86497.20;;;
69597;BMP180;56802;51.184;-115.558;2022-07-29T00:16:43;86498.60;;;
69597;BMP180;56802;51.184;-115.558;2022-07-29T00:19:13;86497.80;;;
69597;BMP180;56802;51.184;-115.558;2022-07-29T00:21:42;86498.40;;;
69597;BMP180;56802;51.184;-115.558;2022-07-29T00:24:12;86493.60;;;
69597;BMP180;56802;51.184;-115.558;2022-07-29T00:26:42;86491.80;;;
69597;BMP180;56802;51.184;-115.558;2022-07-29T00:29:12;86488.40;;;
69597;BMP180;56802;51.184;-115.558;2022-07-29T00:32:02;86490.20;;;
69597;BMP180;56802;51.184;-115.558;2022-07-29T00:34:31;86491.40;;;
69597;BMP180;56802;51.184;-115.558;2022-07-29T00:37:19;86484.20;;;
69597;BMP180;56802;51.184;-115.558;2022-07-29T00:39:50;86482.20;;;
69597;BMP180;56802;51.184;-115.558;2022-07-29T00:42:19;86485.60;;;
69597;BMP180;56802;51.184;-115.558;2022-07-29T00:44:49;86481.20;;;
69597;BMP180;56802;51.184;-115.558;2022-07-29T00:47:19;86485.00;;;
69597;BMP180;56802;51.184;-115.558;2022-07-29T00:49:49;86483.40;;;
69597;BMP180;56802;51.184;-115.558;2022-07-29T00:52:18;86479.20;;;
69597;BMP180;56802;51.184;-115.558;2022-07-29T00:54:48;86485.00;;;
69597;BMP180;56802;51.184;-115.558;2022-07-29T00:57:17;86485.40;;;
69597;BMP180;56802;51.184;-115.558;2022-07-29T00:59:46;86483.60;;;
69597;BMP180;56802;51.184;-115.558;2022-07-29T01:02:16;86485.20;;;
69597;BMP180;56802;51.184;-115.558;2022-07-29T01:04:46;86481.60;;;
69597;BMP180;56802;51.184;-115.558;2022-07-29T01:07:17;86476.00;;;
69597;BMP180;56802;51.184;-115.558;2022-07-29T01:09:47;86479.60;;;
69597;BMP180;56802;51.184;-115.558;2022-07-29T01:12:26;86475.20;;;
69597;BMP180;56802;51.184;-115.558;2022-07-29T01:14:57;86473.00;;;
69597;BMP180;56802;51.184;-115.558;2022-07-29T01:18:22;86472.60;;;
69597;BMP180;56802;51.184;-115.558;2022-07-29T01:29:58;86465.60;;;
69597;BMP180;56802;51.184;-115.558;2022-07-29T01:32:37;86460.80;;;
69597;BMP180;56802;51.184;-115.558;2022-07-29T01:38:16;86459.20;;;
69597;BMP180;56802;51.184;-115.558;2022-07-29T01:41:08;86462.80;;;
69597;BMP180;56802;51.184;-115.558;2022-07-29T01:44:24;86461.60;;;
69597;BMP180;56802;51.184;-115.558;2022-07-29T01:46:58;86463.80;;;
69597;BMP180;56802;51.184;-115.558;2022-07-29T01:49:36;86465.60;;;
69597;BMP180;56802;51.184;-115.558;2022-07-29T01:52:23;86465.20;;;
69597;BMP180;56802;51.184;-115.558;2022-07-29T01:55:04;86461.00;;;
69597;BMP180;56802;51.184;-115.558;2022-07-29T01:57:45;86466.00;;;
69597;BMP180;56802;51.184;-115.558;2022-07-29T02:00:16;86463.60;;;
69597;BMP180;56802;51.184;-115.558;2022-07-29T02:02:48;86463.00;;;
69597;BMP180;56802;51.184;-115.558;2022-07-29T02:05:21;86466.60;;;
69597;BMP180;56802;51.184;-115.558;2022-07-29T02:07:55;86466.60;;;
69597;BMP180;56802;51.184;-115.558;2022-07-29T02:10:29;86470.20;;;
69597;BMP180;56802;51.184;-115.558;2022-07-29T02:13:02;86470.80;;;
69597;BMP180;56802;51.184;-115.558;2022-07-29T02:15:33;86467.80;;;
69597;BMP180;56802;51.184;-115.558;2022-07-29T02:18:11;86473.20;;;
69597;BMP180;56802;51.184;-115.558;2022-07-29T02:20:48;86469.00;;;
69597;BMP180;56802;51.184;-115.558;2022-07-29T02:23:24;86469.80;;;
69597;BMP180;56802;51.184;-115.558;2022-07-29T02:25:57;86472.00;;;
69597;BMP180;56802;51.184;-115.558;2022-07-29T02:28:29;86474.40;;;
69597;BMP180;56802;51.184;-115.558;2022-07-29T02:31:02;86473.20;;;
69597;BMP180;56802;51.184;-115.558;2022-07-29T02:33:33;86469.40;;;
69597;BMP180;56802;51.184;-115.558;2022-07-29T02:36:03;86472.60;;;
69597;BMP180;56802;51.184;-115.558;2022-07-29T02:38:43;86479.00;;;
69597;BMP180;56802;51.184;-115.558;2022-07-29T02:41:48;86476.80;;;
69597;BMP180;56802;51.184;-115.558;2022-07-29T02:44:21;86477.20;;;
69597;BMP180;56802;51.184;-115.558;2022-07-29T02:50:21;86479.40;;;
69597;BMP180;56802;51.184;-115.558;2022-07-29T02:53:22;86480.20;;;
69597;BMP180;56802;51.184;-115.558;2022-07-29T02:55:59;86486.80;;;
69597;BMP180;56802;51.184;-115.558;2022-07-29T02:58:46;86485.20;;;
69597;BMP180;56802;51.184;-115.558;2022-07-29T03:01:24;86485.80;;;
69597;BMP180;56802;51.184;-115.558;2022-07-29T03:03:55;86486.40;;;
69597;BMP180;56802;51.184;-115.558;2022-07-29T03:06:26;86483.60;;;
69597;BMP180;56802;51.184;-115.558;2022-07-29T03:09:07;86486.60;;;
69597;BMP180;56802;51.184;-115.558;2022-07-29T03:11:41;86488.00;;;
69597;BMP180;56802;51.184;-115.558;2022-07-29T03:14:20;86494.40;;;
69597;BMP180;56802;51.184;-115.558;2022-07-29T03:16:50;86488.00;;;
69597;BMP180;56802;51.184;-115.558;2022-07-29T03:19:20;86492.40;;;
69597;BMP180;56802;51.184;-115.558;2022-07-29T03:21:50;86487.80;;;
69597;BMP180;56802;51.184;-115.558;2022-07-29T03:24:33;86488.00;;;
69597;BMP180;56802;51.184;-115.558;2022-07-29T03:27:04;86487.20;;;
69597;BMP180;56802;51.184;-115.558;2022-07-29T03:29:34;86492.80;;;
69597;BMP180;56802;51.184;-115.558;2022-07-29T03:32:05;86497.00;;;
69597;BMP180;56802;51.184;-115.558;2022-07-29T03:34:36;86496.00;;;
69597;BMP180;56802;51.184;-115.558;2022-07-29T03:37:06;86494.20;;;
69597;BMP180;56802;51.184;-115.558;2022-07-29T03:39:40;86494.20;;;
69597;BMP180;56802;51.184;-115.558;2022-07-29T03:42:14;86498.80;;;
69597;BMP180;56802;51.184;-115.558;2022-07-29T03:44:47;86496.20;;;
69597;BMP180;56802;51.184;-115.558;2022-07-29T03:47:23;86496.60;;;
69597;BMP180;56802;51.184;-115.558;2022-07-29T03:50:16;86500.00;;;
69597;BMP180;56802;51.184;-115.558;2022-07-29T03:52:48;86507.40;;;
69597;BMP180;56802;51.184;-115.558;2022-07-29T03:55:18;86506.40;;;
69597;BMP180;56802;51.184;-115.558;2022-07-29T03:57:49;86517.60;;;
69597;BMP180;56802;51.184;-115.558;2022-07-29T04:00:19;86513.40;;;
69597;BMP180;56802;51.184;-115.558;2022-07-29T04:02:48;86512.40;;;
69597;BMP180;56802;51.184;-115.558;2022-07-29T04:05:18;86514.80;;;
69597;BMP180;56802;51.184;-115.558;2022-07-29T04:07:51;86521.40;;;
69597;BMP180;56802;51.184;-115.558;2022-07-29T04:10:20;86528.80;;;
69597;BMP180;56802;51.184;-115.558;2022-07-29T04:12:59;86525.60;;;
69597;BMP180;56802;51.184;-115.558;2022-07-29T04:15:29;86534.00;;;
69597;BMP180;56802;51.184;-115.558;2022-07-29T04:17:59;86535.40;;;
69597;BMP180;56802;51.184;-115.558;2022-07-29T04:20:30;86537.20;;;
69597;BMP180;56802;51.184;-115.558;2022-07-29T04:23:00;86546.60;;;
69597;BMP180;56802;51.184;-115.558;2022-07-29T04:25:29;86546.40;;;
69597;BMP180;56802;51.184;-115.558;2022-07-29T04:27:59;86551.20;;;
69597;BMP180;56802;51.184;-115.558;2022-07-29T04:30:33;86555.40;;;
69597;BMP180;56802;51.184;-115.558;2022-07-29T04:33:05;86554.60;;;
69597;BMP180;56802;51.184;-115.558;2022-07-29T04:35:38;86559.00;;;
69597;BMP180;56802;51.184;-115.558;2022-07-29T04:38:17;86561.00;;;
69597;BMP180;56802;51.184;-115.558;2022-07-29T04:40:46;86565.80;;;
69597;BMP180;56802;51.184;-115.558;2022-07-29T04:43:16;86565.20;;;
69597;BMP180;56802;51.184;-115.558;2022-07-29T04:45:49;86567.60;;;
69597;BMP180;56802;51.184;-115.558;2022-07-29T04:48:19;86570.20;;;
69597;BMP180;56802;51.184;-115.558;2022-07-29T04:50:55;86564.60;;;
69597;BMP180;56802;51.184;-115.558;2022-07-29T04:53:26;86571.80;;;
69597;BMP180;56802;51.184;-115.558;2022-07-29T04:55:55;86569.40;;;
69597;BMP180;56802;51.184;-115.558;2022-07-29T04:58:25;86574.20;;;
69597;BMP180;56802;51.184;-115.558;2022-07-29T05:00:57;86572.60;;;
69597;BMP180;56802;51.184;-115.558;2022-07-29T05:03:26;86575.20;;;
69597;BMP180;56802;51.184;-115.558;2022-07-29T05:05:56;86571.40;;;
69597;BMP180;56802;51.184;-115.558;2022-07-29T05:08:25;86580.00;;;
69597;BMP180;56802;51.184;-115.558;2022-07-29T05:10:54;86576.60;;;
69597;BMP180;56802;51.184;-115.558;2022-07-29T05:13:24;86580.60;;;
69597;BMP180;56802;51.184;-115.558;2022-07-29T05:16:11;86579.40;;;
69597;BMP180;56802;51.184;-115.558;2022-07-29T05:18:42;86583.80;;;
69597;BMP180;56802;51.184;-115.558;2022-07-29T05:21:11;86589.40;;;
69597;BMP180;56802;51.184;-115.558;2022-07-29T05:23:41;86587.40;;;
69597;BMP180;56802;51.184;-115.558;2022-07-29T05:26:10;86587.00;;;
69597;BMP180;56802;51.184;-115.558;2022-07-29T05:28:40;86586.80;;;
69597;BMP180;56802;51.184;-115.558;2022-07-29T05:31:09;86587.20;;;
69597;BMP180;56802;51.184;-115.558;2022-07-29T05:33:39;86582.80;;;
69597;BMP180;56802;51.184;-115.558;2022-07-29T05:36:08;86586.80;;;
69597;BMP180;56802;51.184;-115.558;2022-07-29T05:38:38;86587.40;;;
69597;BMP180;56802;51.184;-115.558;2022-07-29T05:41:07;86591.60;;;
69597;BMP180;56802;51.184;-115.558;2022-07-29T05:43:36;86597.20;;;
69597;BMP180;56802;51.184;-115.558;2022-07-29T05:46:06;86598.80;;;
69597;BMP180;56802;51.184;-115.558;2022-07-29T05:48:35;86599.00;;;
69597;BMP180;56802;51.184;-115.558;2022-07-29T05:51:05;86596.60;;;
69597;BMP180;56802;51.184;-115.558;2022-07-29T05:53:34;86604.20;;;
69597;BMP180;56802;51.184;-115.558;2022-07-29T05:56:04;86600.60;;;
69597;BMP180;56802;51.184;-115.558;2022-07-29T05:58:34;86602.40;;;
69597;BMP180;56802;51.184;-115.558;2022-07-29T06:01:03;86607.80;;;
69597;BMP180;56802;51.184;-115.558;2022-07-29T06:03:33;86604.20;;;
69597;BMP180;56802;51.184;-115.558;2022-07-29T06:06:03;86614.60;;;
69597;BMP180;56802;51.184;-115.558;2022-07-29T06:08:35;86614.40;;;
69597;BMP180;56802;51.184;-115.558;2022-07-29T06:11:05;86617.40;;;
69597;BMP180;56802;51.184;-115.558;2022-07-29T06:13:34;86621.60;;;
69597;BMP180;56802;51.184;-115.558;2022-07-29T06:16:04;86618.20;;;
69597;BMP180;56802;51.184;-115.558;2022-07-29T06:18:34;86621.20;;;
69597;BMP180;56802;51.184;-115.558;2022-07-29T06:21:08;86620.80;;;
69597;BMP180;56802;51.184;-115.558;2022-07-29T06:23:39;86624.20;;;
69597;BMP180;56802;51.184;-115.558;2022-07-29T06:26:08;86622.40;;;
69597;BMP180;56802;51.184;-115.558;2022-07-29T06:28:38;86629.80;;;
69597;BMP180;56802;51.184;-115.558;2022-07-29T06:31:08;86631.60;;;
69597;BMP180;56802;51.184;-115.558;2022-07-29T06:33:37;86629.00;;;
69597;BMP180;56802;51.184;-115.558;2022-07-29T06:36:07;86624.80;;;
69597;BMP180;56802;51.184;-115.558;2022-07-29T06:38:38;86628.80;;;
69597;BMP180;56802;51.184;-115.558;2022-07-29T06:41:17;86631.80;;;
69597;BMP180;56802;51.184;-115.558;2022-07-29T06:43:47;86641.40;;;
69597;BMP180;56802;51.184;-115.558;2022-07-29T06:46:21;86642.80;;;
69597;BMP180;56802;51.184;-115.558;2022-07-29T06:48:52;86641.40;;;
69597;BMP180;56802;51.184;-115.558;2022-07-29T06:51:22;86644.60;;;
69597;BMP180;56802;51.184;-115.558;2022-07-29T06:53:53;86639.80;;;
69597;BMP180;56802;51.184;-115.558;2022-07-29T06:56:34;86641.20;;;
69597;BMP180;56802;51.184;-115.558;2022-07-29T06:59:08;86644.40;;;
69597;BMP180;56802;51.184;-115.558;2022-07-29T07:01:41;86640.20;;;
69597;BMP180;56802;51.184;-115.558;2022-07-29T07:04:11;86645.20;;;
69597;BMP180;56802;51.184;-115.558;2022-07-29T07:06:43;86649.80;;;
69597;BMP180;56802;51.184;-115.558;2022-07-29T07:09:12;86651.00;;;
69597;BMP180;56802;51.184;-115.558;2022-07-29T07:11:42;86652.80;;;
69597;BMP180;56802;51.184;-115.558;2022-07-29T07:14:16;86649.40;;;
69597;BMP180;56802;51.184;-115.558;2022-07-29T07:16:48;86647.80;;;
69597;BMP180;56802;51.184;-115.558;2022-07-29T07:19:21;86648.20;;;
69597;BMP180;56802;51.184;-115.558;2022-07-29T07:21:53;86654.20;;;
69597;BMP180;56802;51.184;-115.558;2022-07-29T07:24:22;86653.20;;;
69597;BMP180;56802;51.184;-115.558;2022-07-29T07:26:51;86646.40;;;
69597;BMP180;56802;51.184;-115.558;2022-07-29T07:29:21;86644.80;;;
69597;BMP180;56802;51.184;-115.558;2022-07-29T07:31:50;86642.40;;;
69597;BMP180;56802;51.184;-115.558;2022-07-29T07:34:27;86645.60;;;
69597;BMP180;56802;51.184;-115.558;2022-07-29T07:36:56;86649.80;;;
69597;BMP180;56802;51.184;-115.558;2022-07-29T07:39:25;86644.20;;;
69597;BMP180;56802;51.184;-115.558;2022-07-29T07:41:55;86642.20;;;
69597;BMP180;56802;51.184;-115.558;2022-07-29T07:44:25;86646.40;;;
69597;BMP180;56802;51.184;-115.558;2022-07-29T07:46:54;86647.80;;;
69597;BMP180;56802;51.184;-115.558;2022-07-29T07:49:30;86650.00;;;
69597;BMP180;56802;51.184;-115.558;2022-07-29T07:52:02;86647.40;;;
69597;BMP180;56802;51.184;-115.558;2022-07-29T07:54:33;86649.00;;;
69597;BMP180;56802;51.184;-115.558;2022-07-29T07:57:02;86645.80;;;
69597;BMP180;56802;51.184;-115.558;2022-07-29T07:59:32;86649.40;;;
69597;BMP180;56802;51.184;-115.558;2022-07-29T08:02:01;86646.20;;;
69597;BMP180;56802;51.184;-115.558;2022-07-29T08:04:31;86638.60;;;
69597;BMP180;56802;51.184;-115.558;2022-07-29T08:07:02;86640.40;;;
69597;BMP180;56802;51.184;-115.558;2022-07-29T08:09:31;86638.40;;;
69597;BMP180;56802;51.184;-115.558;2022-07-29T08:12:02;86636.20;;;
69597;BMP180;56802;51.184;-115.558;2022-07-29T08:14:33;86638.00;;;
69597;BMP180;56802;51.184;-115.558;2022-07-29T08:17:03;86645.40;;;
69597;BMP180;56802;51.184;-115.558;2022-07-29T08:19:32;86651.20;;;
69597;BMP180;56802;51.184;-115.558;2022-07-29T08:22:01;86648.80;;;
69597;BMP180;56802;51.184;-115.558;2022-07-29T08:24:31;86652.00;;;
69597;BMP180;56802;51.184;-115.558;2022-07-29T08:27:13;86653.80;;;
69597;BMP180;56802;51.184;-115.558;2022-07-29T08:30:03;86654.80;;;
69597;BMP180;56802;51.184;-115.558;2022-07-29T08:32:34;86656.20;;;
69597;BMP180;56802;51.184;-115.558;2022-07-29T08:35:23;86654.20;;;
69597;BMP180;56802;51.184;-115.558;2022-07-29T08:37:53;86659.60;;;
69597;BMP180;56802;51.184;-115.558;2022-07-29T08:40:23;86658.20;;;
69597;BMP180;56802;51.184;-115.558;2022-07-29T08:43:05;86658.40;;;
69597;BMP180;56802;51.184;-115.558;2022-07-29T08:45:46;86658.00;;;
69597;BMP180;56802;51.184;-115.558;2022-07-29T08:48:19;86660.60;;;
69597;BMP180;56802;51.184;-115.558;2022-07-29T08:50:55;86660.80;;;
69597;BMP180;56802;51.184;-115.558;2022-07-29T08:53:28;86656.60;;;
69597;BMP180;56802;51.184;-115.558;2022-07-29T08:55:58;86659.40;;;
69597;BMP180;56802;51.184;-115.558;2022-07-29T08:58:33;86658.40;;;
69597;BMP180;56802;51.184;-115.558;2022-07-29T09:01:06;86656.00;;;
69597;BMP180;56802;51.184;-115.558;2022-07-29T09:03:41;86653.40;;;
69597;BMP180;56802;51.184;-115.558;2022-07-29T09:06:18;86655.80;;;
69597;BMP180;56802;51.184;-115.558;2022-07-29T09:08:48;86650.40;;;
69597;BMP180;56802;51.184;-115.558;2022-07-29T09:11:18;86653.80;;;
69597;BMP180;56802;51.184;-115.558;2022-07-29T09:13:47;86653.80;;;
69597;BMP180;56802;51.184;-115.558;2022-07-29T09:16:18;86660.60;;;
69597;BMP180;56802;51.184;-115.558;2022-07-29T09:19:28;86660.00;;;
69597;BMP180;56802;51.184;-115.558;2022-07-29T09:22:00;86654.40;;;
69597;BMP180;56802;51.184;-115.558;2022-07-29T09:24:45;86654.60;;;
69597;BMP180;56802;51.184;-115.558;2022-07-29T09:27:24;86649.60;;;
69597;BMP180;56802;51.184;-115.558;2022-07-29T09:30:09;86651.80;;;
69597;BMP180;56802;51.184;-115.558;2022-07-29T09:33:01;86653.80;;;
69597;BMP180;56802;51.184;-115.558;2022-07-29T09:35:31;86660.80;;;
69597;BMP180;56802;51.184;-115.558;2022-07-29T09:38:14;86656.60;;;
69597;BMP180;56802;51.184;-115.558;2022-07-29T09:41:02;86648.40;;;
69597;BMP180;56802;51.184;-115.558;2022-07-29T09:43:34;86656.00;;;
69597;BMP180;56802;51.184;-115.558;2022-07-29T09:46:14;86652.00;;;
69597;BMP180;56802;51.184;-115.558;2022-07-29T09:48:43;86653.60;;;
69597;BMP180;56802;51.184;-115.558;2022-07-29T09:51:19;86651.80;;;
69597;BMP180;56802;51.184;-115.558;2022-07-29T09:54:35;86650.40;;;
69597;BMP180;56802;51.184;-115.558;2022-07-29T09:57:21;86653.80;;;
69597;BMP180;56802;51.184;-115.558;2022-07-29T10:00:13;86649.80;;;
69597;BMP180;56802;51.184;-115.558;2022-07-29T10:02:47;86652.60;;;
69597;BMP180;56802;51.184;-115.558;2022-07-29T10:05:24;86649.40;;;
69597;BMP180;56802;51.184;-115.558;2022-07-29T10:08:04;86650.20;;;
69597;BMP180;56802;51.184;-115.558;2022-07-29T10:10:39;86648.20;;;
69597;BMP180;56802;51.184;-115.558;2022-07-29T10:13:14;86647.00;;;
69597;BMP180;56802;51.184;-115.558;2022-07-29T10:15:44;86647.60;;;
69597;BMP180;56802;51.184;-115.558;2022-07-29T10:18:15;86651.60;;;
69597;BMP180;56802;51.184;-115.558;2022-07-29T10:20:49;86653.00;;;
69597;BMP180;56802;51.184;-115.558;2022-07-29T10:23:19;86654.80;;;
69597;BMP180;56802;51.184;-115.558;2022-07-29T10:25:49;86654.80;;;
69597;BMP180;56802;51.184;-115.558;2022-07-29T10:28:18;86654.20;;;
69597;BMP180;56802;51.184;-115.558;2022-07-29T10:30:51;86657.80;;;
69597;BMP180;56802;51.184;-115.558;2022-07-29T10:41:33;86659.00;;;
69597;BMP180;56802;51.184;-115.558;2022-07-29T10:44:18;86659.40;;;
69597;BMP180;56802;51.184;-115.558;2022-07-29T10:46:51;86659.00;;;
69597;BMP180;56802;51.184;-115.558;2022-07-29T10:49:26;86665.00;;;
69597;BMP180;56802;51.184;-115.558;2022-07-29T10:52:07;86661.20;;;
69597;BMP180;56802;51.184;-115.558;2022-07-29T10:54:43;86671.20;;;
69597;BMP180;56802;51.184;-115.558;2022-07-29T10:57:20;86672.00;;;
69597;BMP180;56802;51.184;-115.558;2022-07-29T11:02:45;86669.00;;;
69597;BMP180;56802;51.184;-115.558;2022-07-29T11:05:20;86671.40;;;
69597;BMP180;56802;51.184;-115.558;2022-07-29T11:10:49;86668.80;;;
69597;BMP180;56802;51.184;-115.558;2022-07-29T11:16:17;86674.60;;;
69597;BMP180;56802;51.184;-115.558;2022-07-29T11:19:21;86677.00;;;
69597;BMP180;56802;51.184;-115.558;2022-07-29T11:21:58;86674.60;;;
69597;BMP180;56802;51.184;-115.558;2022-07-29T11:24:31;86683.40;;;
69597;BMP180;56802;51.184;-115.558;2022-07-29T11:27:18;86679.40;;;
69597;BMP180;56802;51.184;-115.558;2022-07-29T11:29:53;86678.80;;;
69597;BMP180;56802;51.184;-115.558;2022-07-29T11:32:38;86678.00;;;
69597;BMP180;56802;51.184;-115.558;2022-07-29T11:38:23;86684.40;;;
69597;BMP180;56802;51.184;-115.558;2022-07-29T11:40:37;86686.80;;;
69597;BMP180;56802;51.184;-115.558;2022-07-29T11:43:09;86691.80;;;
69597;BMP180;56802;51.184;-115.558;2022-07-29T11:45:50;86689.60;;;
69597;BMP180;56802;51.184;-115.558;2022-07-29T11:48:19;86694.20;;;
69597;BMP180;56802;51.184;-115.558;2022-07-29T11:50:59;86693.20;;;
69597;BMP180;56802;51.184;-115.558;2022-07-29T11:53:29;86689.00;;;
69597;BMP180;56802;51.184;-115.558;2022-07-29T11:56:01;86691.00;;;
69597;BMP180;56802;51.184;-115.558;2022-07-29T11:58:31;86692.80;;;
69597;BMP180;56802;51.184;-115.558;2022-07-29T12:01:01;86690.80;;;
69597;BMP180;56802;51.184;-115.558;2022-07-29T12:03:32;86690.40;;;
69597;BMP180;56802;51.184;-115.558;2022-07-29T12:06:23;86695.80;;;
69597;BMP180;56802;51.184;-115.558;2022-07-29T12:08:53;86699.40;;;
69597;BMP180;56802;51.184;-115.558;2022-07-29T12:11:22;86700.60;;;
69597;BMP180;56802;51.184;-115.558;2022-07-29T12:13:52;86695.20;;;
69597;BMP180;56802;51.184;-115.558;2022-07-29T12:16:22;86697.40;;;
69597;BMP180;56802;51.184;-115.558;2022-07-29T12:19:02;86694.80;;;
69597;BMP180;56802;51.184;-115.558;2022-07-29T12:21:53;86699.60;;;
69597;BMP180;56802;51.184;-115.558;2022-07-29T12:24:43;86699.40;;;
69597;BMP180;56802;51.184;-115.558;2022-07-29T12:27:17;86705.60;;;
69597;BMP180;56802;51.184;-115.558;2022-07-29T12:30:00;86701.40;;;
69597;BMP180;56802;51.184;-115.558;2022-07-29T12:32:45;86701.00;;;
69597;BMP180;56802;51.184;-115.558;2022-07-29T12:35:19;86702.00;;;
69597;BMP180;56802;51.184;-115.558;2022-07-29T12:37:49;86700.80;;;
69597;BMP180;56802;51.184;-115.558;2022-07-29T12:40:22;86702.20;;;
69597;BMP180;56802;51.184;-115.558;2022-07-29T12:43:17;86698.40;;;
69597;BMP180;56802;51.184;-115.558;2022-07-29T12:45:50;86704.80;;;
69597;BMP180;56802;51.184;-115.558;2022-07-29T12:48:41;86706.40;;;
69597;BMP180;56802;51.184;-115.558;2022-07-29T12:51:12;86713.20;;;
69597;BMP180;56802;51.184;-115.558;2022-07-29T12:54:11;86713.60;;;
69597;BMP180;56802;51.184;-115.558;2022-07-29T12:56:44;86715.40;;;
69597;BMP180;56802;51.184;-115.558;2022-07-29T12:59:20;86713.00;;;
69597;BMP180;56802;51.184;-115.558;2022-07-29T13:01:52;86715.20;;;
69597;BMP180;56802;51.184;-115.558;2022-07-29T13:04:28;86716.80;;;
69597;BMP180;56802;51.184;-115.558;2022-07-29T13:07:05;86712.00;;;
69597;BMP180;56802;51.184;-115.558;2022-07-29T13:09:42;86713.40;;;
69597;BMP180;56802;51.184;-115.558;2022-07-29T13:12:14;86712.20;;;
69597;BMP180;56802;51.184;-115.558;2022-07-29T13:14:46;86712.00;;;
69597;BMP180;56802;51.184;-115.558;2022-07-29T13:17:20;86710.80;;;
69597;BMP180;56802;51.184;-115.558;2022-07-29T13:20:04;86707.60;;;
69597;BMP180;56802;51.184;-115.558;2022-07-29T13:22:35;86703.40;;;
69597;BMP180;56802;51.184;-115.558;2022-07-29T13:25:05;86703.40;;;
69597;BMP180;56802;51.184;-115.558;2022-07-29T13:27:38;86710.40;;;
69597;BMP180;56802;51.184;-115.558;2022-07-29T13:30:13;86706.20;;;
69597;BMP180;56802;51.184;-115.558;2022-07-29T13:32:42;86704.20;;;
69597;BMP180;56802;51.184;-115.558;2022-07-29T13:35:12;86699.80;;;
69597;BMP180;56802;51.184;-115.558;2022-07-29T13:37:42;86698.60;;;
69597;BMP180;56802;51.184;-115.558;2022-07-29T13:40:12;86702.80;;;
69597;BMP180;56802;51.184;-115.558;2022-07-29T13:42:42;86696.80;;;
69597;BMP180;56802;51.184;-115.558;2022-07-29T13:45:13;86695.00;;;
69597;BMP180;56802;51.184;-115.558;2022-07-29T13:47:43;86695.80;;;
69597;BMP180;56802;51.184;-115.558;2022-07-29T13:50:16;86693.00;;;
69597;BMP180;56802;51.184;-115.558;2022-07-29T13:52:45;86688.00;;;
69597;BMP180;56802;51.184;-115.558;2022-07-29T13:55:16;86689.60;;;
69597;BMP180;56802;51.184;-115.558;2022-07-29T13:57:46;86695.00;;;
69597;BMP180;56802;51.184;-115.558;2022-07-29T14:00:19;86697.60;;;
69597;BMP180;56802;51.184;-115.558;2022-07-29T14:02:49;86703.80;;;
69597;BMP180;56802;51.184;-115.558;2022-07-29T14:05:19;86700.00;;;
69597;BMP180;56802;51.184;-115.558;2022-07-29T14:07:48;86697.40;;;
69597;BMP180;56802;51.184;-115.558;2022-07-29T14:10:17;86702.00;;;
69597;BMP180;56802;51.184;-115.558;2022-07-29T14:12:46;86700.20;;;
69597;BMP180;56802;51.184;-115.558;2022-07-29T14:15:16;86702.80;;;
69597;BMP180;56802;51.184;-115.558;2022-07-29T14:17:45;86705.80;;;
69597;BMP180;56802;51.184;-115.558;2022-07-29T14:20:15;86705.80;;;
69597;BMP180;56802;51.184;-115.558;2022-07-29T14:22:45;86697.40;;;
69597;BMP180;56802;51.184;-115.558;2022-07-29T14:25:15;86699.60;;;
69597;BMP180;56802;51.184;-115.558;2022-07-29T14:27:47;86697.20;;;
69597;BMP180;56802;51.184;-115.558;2022-07-29T14:30:17;86694.80;;;
69597;BMP180;56802;51.184;-115.558;2022-07-29T14:32:46;86687.80;;;
69597;BMP180;56802;51.184;-115.558;2022-07-29T14:35:16;86691.00;;;
69597;BMP180;56802;51.184;-115.558;2022-07-29T14:37:48;86693.80;;;
69597;BMP180;56802;51.184;-115.558;2022-07-29T14:40:18;86697.60;;;
69597;BMP180;56802;51.184;-115.558;2022-07-29T14:42:47;86687.80;;;
69597;BMP180;56802;51.184;-115.558;2022-07-29T14:45:16;86693.40;;;
69597;BMP180;56802;51.184;-115.558;2022-07-29T14:47:46;86687.40;;;
69597;BMP180;56802;51.184;-115.558;2022-07-29T14:50:15;86682.40;;;
69597;BMP180;56802;51.184;-115.558;2022-07-29T14:52:56;86676.40;;;
69597;BMP180;56802;51.184;-115.558;2022-07-29T14:55:29;86674.40;;;
69597;BMP180;56802;51.184;-115.558;2022-07-29T14:57:58;86665.40;;;
69597;BMP180;56802;51.184;-115.558;2022-07-29T15:00:37;86668.20;;;
69597;BMP180;56802;51.184;-115.558;2022-07-29T15:03:09;86673.80;;;
69597;BMP180;56802;51.184;-115.558;2022-07-29T15:05:54;86667.60;;;
69597;BMP180;56802;51.184;-115.558;2022-07-29T15:08:26;86666.00;;;
69597;BMP180;56802;51.184;-115.558;2022-07-29T15:10:59;86667.80;;;
69597;BMP180;56802;51.184;-115.558;2022-07-29T15:13:29;86666.60;;;
69597;BMP180;56802;51.184;-115.558;2022-07-29T15:15:58;86663.00;;;
69597;BMP180;56802;51.184;-115.558;2022-07-29T15:18:27;86657.00;;;
69597;BMP180;56802;51.184;-115.558;2022-07-29T15:20:58;86651.80;;;
69597;BMP180;56802;51.184;-115.558;2022-07-29T15:23:29;86646.00;;;
69597;BMP180;56802;51.184;-115.558;2022-07-29T15:25:58;86646.20;;;
69597;BMP180;56802;51.184;-115.558;2022-07-29T15:28:27;86643.80;;;
69597;BMP180;56802;51.184;-115.558;2022-07-29T15:30:57;86646.00;;;
69597;BMP180;56802;51.184;-115.558;2022-07-29T15:33:27;86644.20;;;
69597;BMP180;56802;51.184;-115.558;2022-07-29T15:35:58;86643.60;;;
69597;BMP180;56802;51.184;-115.558;2022-07-29T15:38:28;86639.20;;;
69597;BMP180;56802;51.184;-115.558;2022-07-29T15:40:57;86639.00;;;
69597;BMP180;56802;51.184;-115.558;2022-07-29T15:43:27;86634.00;;;
69597;BMP180;56802;51.184;-115.558;2022-07-29T15:45:57;86629.40;;;
69597;BMP180;56802;51.184;-115.558;2022-07-29T15:48:45;86629.40;;;